Thursday, November 23, 2017, 6:30 PM GMT
Back to Local

CYPD, Port Hawkesbury

Location: , , Canada Lat: 45.667
Local Time: 6:30 PM GMT (18:30 GMT) Lon: -61.383
Time Zone: GMT Elev: 374 ft

Show me the last for .
Show Decoded

2017-11-23 18:00 METAR CYPD 231800Z AUTO 28025G32KT 9SM OVC018 03/M01 A2963 RMK SLP038 =
2017-11-23 17:00 METAR CYPD 231700Z AUTO 27022G36KT 9SM OVC016 03/M00 A2961 RMK SLP032 =
2017-11-23 16:00 METAR CYPD 231600Z AUTO 27025G39KT 9SM OVC014 03/00 A2958 RMK SLP020 =
2017-11-23 15:00 METAR CYPD 231500Z AUTO 28023G38KT 9SM OVC016 03/01 A2954 RMK SLP006 =
2017-11-23 14:00 METAR CYPD 231400Z AUTO 28028G41KT 9SM OVC016 04/01 A2948 RMK SLP987 =
2017-11-23 13:53 METAR CYPD 231353Z AUTO 28028G38KT 9SM OVC014 04/02 A2947 RMK PRESRR SLP985 =
2017-11-23 13:34 METAR CYPD 231334Z AUTO 28030G38KT 9SM 03/02 A2946 RMK CLD MISG SLP979 =
2017-11-23 13:00 METAR CYPD 231300Z AUTO /////KT RMK WND MISG CLD MISG WX MISG VIS MISG PCPN MISG
                 PRES MISG T MISG TD MISG ICG MISG DENSITY ALT MISG =
2017-11-23 12:00 METAR CYPD 231200Z AUTO /////KT RMK WND MISG CLD MISG WX MISG VIS MISG PCPN MISG
                 PRES MISG T MISG TD MISG ICG MISG DENSITY ALT MISG =
2017-11-23 11:00 METAR CYPD 231100Z AUTO /////KT 06/04 A2920 RMK PRESRR WND MISG CLD MISG WX MISG
                 VIS MISG PCPN MISG ICG MISG SLP893 =
2017-11-23 10:00 METAR CYPD 231000Z AUTO /////KT 12/11 A2910 RMK WND MISG CLD MISG WX MISG VIS
                 MISG PCPN MISG ICG MISG SLP857 DENSITY ALT 1000FT =
2017-11-23 09:00 METAR CYPD 230900Z AUTO /////KT 13/12 A2910 RMK WND MISG CLD MISG WX MISG VIS
                 MISG PCPN MISG ICG MISG SLP857 DENSITY ALT 1100FT =
2017-11-23 08:00 METAR CYPD 230800Z AUTO /////KT 13/12 A2918 RMK PRESFR WND MISG CLD MISG WX MISG
                 VIS MISG PCPN MISG ICG MISG SLP884 DENSITY ALT 1000FT =
2017-11-23 07:00 METAR CYPD 230700Z AUTO /////KT 1 1/4SM 11/11 A2930 RMK PRESFR WND MISG CLD MISG
                 PCPN MISG ICG MISG SLP925 DENSITY ALT 700FT =
2017-11-23 06:52 METAR CYPD 230652Z AUTO 12033G55KT 1 1/4SM RA BR BKN005 OVC014 11/11 A2931 RMK
                 PRESFR SLP928 DENSITY ALT 700FT =
2017-11-23 06:25 METAR CYPD 230625Z AUTO 11021G34KT 2 1/4SM RA BR OVC005 11/10 A2942 RMK VIS VRB
                 1 1/4-3 PRESFR SLP967 DENSITY ALT 500FT =
2017-11-23 06:19 METAR CYPD 230619Z AUTO 13020G29KT 3SM -RA BR OVC005 11/11 A2944 RMK PRESFR
                 SLP974 DENSITY ALT 500FT =
2017-11-23 06:06 METAR CYPD 230606Z AUTO 12015G27KT 2 1/4SM RA BR BKN005 OVC031 11/10 A2947 RMK
                 VIS VRB 1 3/4-3 PRESFR SLP981 DENSITY ALT 400FT =
2017-11-23 06:00 METAR CYPD 230600Z AUTO 13014G28KT 3SM -RA BR BKN005 OVC034 11/10 A2949 RMK
                 PRESFR PCPN 7.2MM PAST HR SLP990 DENSITY ALT 400FT =
2017-11-23 05:57 METAR CYPD 230557Z AUTO 13020G28KT 3SM -RA BR BKN005 OVC036 11/10 A2949 RMK
                 PRESFR SLP989 DENSITY ALT 400FT =
2017-11-23 05:44 METAR CYPD 230544Z AUTO 13019G28KT 2 1/4SM RA BR BKN005 BKN030 BKN042 OVC065
                 11/10 A2951 RMK SLP996 DENSITY ALT 400FT =
2017-11-23 05:42 METAR CYPD 230542Z AUTO 14016G26KT 2 1/4SM RA BR SCT005 BKN011 BKN033 OVC065
                 11/10 A2952 RMK SLP000 DENSITY ALT 400FT =
2017-11-23 05:38 METAR CYPD 230538Z AUTO 13016G27KT 3SM RA BR SCT005 BKN011 BKN046 OVC065 11/10
                 A2953 RMK PRESFR SLP002 DENSITY ALT 400FT =
2017-11-23 05:00 METAR CYPD 230500Z AUTO 15019G28KT 5SM RA BR FEW025 SCT034 BKN050 OVC065 12/11
                 A2959 RMK SLP024 DENSITY ALT 400FT =
2017-11-23 04:59 METAR CYPD 230459Z AUTO 15017G28KT 5SM -RA BR FEW025 SCT034 BKN050 OVC065 12/11
                 A2959 RMK SLP023 DENSITY ALT 400FT =
2017-11-23 04:14 METAR CYPD 230414Z AUTO 14011G17KT 9SM -RA SCT055 SCT068 BKN079 OVC120 12/10
                 A2966 RMK PRESFR SLP046 DENSITY ALT 400FT =
2017-11-23 04:00 METAR CYPD 230400Z AUTO 13010G17KT 9SM FEW013 SCT065 SCT083 OVC120 12/10 A2968
                 RMK SLP054 =
2017-11-23 03:45 METAR CYPD 230345Z AUTO 13011G17KT 9SM SCT013 OVC065 12/11 A2968 RMK PRESFR
                 SLP054 DENSITY ALT 400FT =
2017-11-23 03:09 METAR CYPD 230309Z AUTO 13011G19KT 9SM BKN013 BKN030 OVC060 12/10 A2972 RMK
                 PRESFR SLP069 =
2017-11-23 03:00 METAR CYPD 230300Z AUTO 12010G16KT 9SM FEW013 BKN030 OVC060 12/10 A2973 RMK
                 PRESFR SLP072 =
2017-11-23 02:00 METAR CYPD 230200Z AUTO 13008G15KT 9SM SCT028 OVC060 12/10 A2980 RMK PRESFR
                 SLP095 =
2017-11-23 01:32 METAR CYPD 230132Z AUTO 14011G16KT 9SM FEW027 SCT046 OVC060 12/10 A2983 RMK
                 SLP106 =
2017-11-23 01:11 METAR CYPD 230111Z AUTO 13010G15KT 9SM -RA BKN025 BKN036 OVC055 12/10 A2984 RMK
                 PRESFR SLP109 =
2017-11-23 01:00 METAR CYPD 230100Z AUTO 14008KT 9SM BKN027 OVC055 12/10 A2985 RMK PRESFR SLP112
                 =
2017-11-23 00:00 METAR CYPD 230000Z AUTO 14008KT 9SM FEW034 SCT060 BKN150 12/10 A2989 RMK PRESFR
                 SLP127 =
2017-11-22 23:00 METAR CYPD 222300Z AUTO 15008KT 9SM FEW043 SCT060 OVC079 11/10 A2994 RMK SLP144
                 =
2017-11-22 22:00 METAR CYPD 222200Z AUTO 16008KT 9SM FEW080 SCT190 SCT210 11/10 A2997 RMK SLP154
                 =
2017-11-22 21:00 METAR CYPD 222100Z AUTO 16005KT 9SM FEW090 11/09 A3000 RMK SLP164 =
2017-11-22 20:00 METAR CYPD 222000Z AUTO 16005KT 9SM SCT085 12/09 A3002 RMK SLP169 =
2017-11-22 19:00 METAR CYPD 221900Z AUTO 14007KT 9SM CLR 15/08 A3002 RMK SLP170 =

Support USWX by starting your Amazon purchase here.